sensor_id;sensor_type;location;lat;lon;timestamp;pressure;altitude;pressure_sealevel;temperature;humidity
53647;BME280;39550;52.230;5.194;2023-02-10T00:01:22;103439.63;;;2.11;81.66
53647;BME280;39550;52.230;5.194;2023-02-10T00:03:48;103445.59;;;2.11;81.67
53647;BME280;39550;52.230;5.194;2023-02-10T00:06:15;103405.09;;;1.94;81.74
53647;BME280;39550;52.230;5.194;2023-02-10T00:08:41;103436.03;;;2.09;81.83
53647;BME280;39550;52.230;5.194;2023-02-10T00:11:09;103428.66;;;2.01;81.74
53647;BME280;39550;52.230;5.194;2023-02-10T00:13:38;103415.81;;;2.00;81.66
53647;BME280;39550;52.230;5.194;2023-02-10T00:16:06;103402.44;;;1.92;81.89
53647;BME280;39550;52.230;5.194;2023-02-10T00:18:32;103400.69;;;1.91;81.99
53647;BME280;39550;52.230;5.194;2023-02-10T00:21:10;103324.09;;;1.47;82.03
53647;BME280;39550;52.230;5.194;2023-02-10T00:23:37;103417.72;;;2.02;81.70
53647;BME280;39550;52.230;5.194;2023-02-10T00:26:07;103372.69;;;1.70;82.01
53647;BME280;39550;52.230;5.194;2023-02-10T00:28:35;103316.41;;;1.36;81.52
53647;BME280;39550;52.230;5.194;2023-02-10T00:31:14;103426.88;;;2.00;81.83
53647;BME280;39550;52.230;5.194;2023-02-10T00:33:40;103435.03;;;2.07;82.22
53647;BME280;39550;52.230;5.194;2023-02-10T00:36:11;103373.56;;;1.71;81.71
53647;BME280;39550;52.230;5.194;2023-02-10T00:38:38;103419.47;;;1.93;81.74
53647;BME280;39550;52.230;5.194;2023-02-10T00:43:31;103433.00;;;2.02;81.95
53647;BME280;39550;52.230;5.194;2023-02-10T00:45:57;103439.09;;;2.04;82.17
53647;BME280;39550;52.230;5.194;2023-02-10T00:48:22;103434.91;;;2.05;81.96
53647;BME280;39550;52.230;5.194;2023-02-10T00:50:48;103438.31;;;2.06;82.07
53647;BME280;39550;52.230;5.194;2023-02-10T00:53:13;103428.91;;;2.04;81.88
53647;BME280;39550;52.230;5.194;2023-02-10T00:55:39;103428.03;;;2.04;81.83
53647;BME280;39550;52.230;5.194;2023-02-10T00:58:06;103422.03;;;2.03;81.94
53647;BME280;39550;52.230;5.194;2023-02-10T01:00:32;103428.41;;;1.98;81.84
53647;BME280;39550;52.230;5.194;2023-02-10T01:02:57;103434.63;;;2.02;81.86
53647;BME280;39550;52.230;5.194;2023-02-10T01:05:23;103433.75;;;2.01;82.26
53647;BME280;39550;52.230;5.194;2023-02-10T01:07:48;103447.47;;;2.03;81.99
53647;BME280;39550;52.230;5.194;2023-02-10T01:10:14;103448.25;;;2.02;82.24
53647;BME280;39550;52.230;5.194;2023-02-10T01:12:39;103444.03;;;2.03;81.85
53647;BME280;39550;52.230;5.194;2023-02-10T01:15:06;103436.03;;;1.98;82.38
53647;BME280;39550;52.230;5.194;2023-02-10T01:17:32;103446.59;;;2.03;81.63
53647;BME280;39550;52.230;5.194;2023-02-10T01:19:58;103449.00;;;2.01;81.98
53647;BME280;39550;52.230;5.194;2023-02-10T01:22:23;103458.28;;;2.01;82.14
53647;BME280;39550;52.230;5.194;2023-02-10T01:24:49;103460.97;;;2.02;82.18
53647;BME280;39550;52.230;5.194;2023-02-10T01:27:16;103464.25;;;2.01;82.08
53647;BME280;39550;52.230;5.194;2023-02-10T01:29:42;103469.34;;;2.01;81.91
53647;BME280;39550;52.230;5.194;2023-02-10T01:32:08;103461.72;;;2.01;81.83
53647;BME280;39550;52.230;5.194;2023-02-10T01:34:36;103460.84;;;2.01;82.06
53647;BME280;39550;52.230;5.194;2023-02-10T01:37:01;103458.91;;;1.98;81.78
53647;BME280;39550;52.230;5.194;2023-02-10T01:39:27;103463.38;;;2.01;82.08
53647;BME280;39550;52.230;5.194;2023-02-10T01:41:52;103465.75;;;1.99;81.86
53647;BME280;39550;52.230;5.194;2023-02-10T01:46:47;103464.00;;;1.98;82.13
53647;BME280;39550;52.230;5.194;2023-02-10T01:49:16;103466.69;;;2.00;82.07
53647;BME280;39550;52.230;5.194;2023-02-10T01:51:57;103455.34;;;1.96;82.19
53647;BME280;39550;52.230;5.194;2023-02-10T01:54:50;103469.09;;;1.98;81.96
53647;BME280;39550;52.230;5.194;2023-02-10T01:57:16;103462.22;;;1.97;81.81
53647;BME280;39550;52.230;5.194;2023-02-10T01:59:45;103463.09;;;1.98;82.14
53647;BME280;39550;52.230;5.194;2023-02-10T02:02:12;103454.47;;;1.96;82.13
53647;BME280;39550;52.230;5.194;2023-02-10T02:04:53;103460.16;;;1.93;82.14
53647;BME280;39550;52.230;5.194;2023-02-10T02:07:25;103458.66;;;1.95;82.01
53647;BME280;39550;52.230;5.194;2023-02-10T02:09:55;103461.97;;;1.94;82.22
53647;BME280;39550;52.230;5.194;2023-02-10T02:12:41;103471.38;;;1.95;81.97
53647;BME280;39550;52.230;5.194;2023-02-10T02:15:46;103461.03;;;1.94;82.11
53647;BME280;39550;52.230;5.194;2023-02-10T02:39:32;103481.25;;;1.92;81.85
53647;BME280;39550;52.230;5.194;2023-02-10T02:42:23;103480.38;;;1.92;81.73
53647;BME280;39550;52.230;5.194;2023-02-10T03:12:45;103468.03;;;1.86;81.85
53647;BME280;39550;52.230;5.194;2023-02-10T03:20:02;103428.53;;;1.60;81.85
53647;BME280;39550;52.230;5.194;2023-02-10T03:37:37;103439.75;;;1.62;82.14
53647;BME280;39550;52.230;5.194;2023-02-10T03:47:49;103477.97;;;1.83;82.04
53647;BME280;39550;52.230;5.194;2023-02-10T03:51:05;103486.34;;;1.82;81.56
53647;BME280;39550;52.230;5.194;2023-02-10T04:01:24;103479.47;;;1.81;81.90
53647;BME280;39550;52.230;5.194;2023-02-10T04:21:44;103489.63;;;1.81;81.83
53647;BME280;39550;52.230;5.194;2023-02-10T04:43:58;103491.16;;;1.79;81.99
53647;BME280;39550;52.230;5.194;2023-02-10T04:47:36;103495.34;;;1.78;81.63
53647;BME280;39550;52.230;5.194;2023-02-10T04:51:19;103483.38;;;1.77;81.63
53647;BME280;39550;52.230;5.194;2023-02-10T04:54:48;103477.41;;;1.77;81.78
53647;BME280;39550;52.230;5.194;2023-02-10T05:18:26;103479.69;;;1.74;82.00
53647;BME280;39550;52.230;5.194;2023-02-10T06:00:59;103480.19;;;1.69;82.12
53647;BME280;39550;52.230;5.194;2023-02-10T06:03:25;103484.38;;;1.69;81.98
53647;BME280;39550;52.230;5.194;2023-02-10T06:05:50;103487.94;;;1.71;81.89
53647;BME280;39550;52.230;5.194;2023-02-10T06:08:16;103481.69;;;1.67;81.90
53647;BME280;39550;52.230;5.194;2023-02-10T06:10:42;103492.16;;;1.70;81.97
53647;BME280;39550;52.230;5.194;2023-02-10T06:13:08;103495.44;;;1.69;82.14
53647;BME280;39550;52.230;5.194;2023-02-10T06:15:53;103499.00;;;1.72;81.86
53647;BME280;39550;52.230;5.194;2023-02-10T06:18:19;103503.06;;;1.69;81.64
53647;BME280;39550;52.230;5.194;2023-02-10T06:20:45;103505.59;;;1.69;81.96
53647;BME280;39550;52.230;5.194;2023-02-10T06:23:11;103500.25;;;1.66;82.33
53647;BME280;39550;52.230;5.194;2023-02-10T06:25:37;103506.47;;;1.70;82.32
53647;BME280;39550;52.230;5.194;2023-02-10T06:28:03;103504.84;;;1.70;81.72
53647;BME280;39550;52.230;5.194;2023-02-10T06:30:29;103503.94;;;1.70;82.21
53647;BME280;39550;52.230;5.194;2023-02-10T06:32:55;103496.06;;;1.67;81.75
53647;BME280;39550;52.230;5.194;2023-02-10T06:35:21;103501.41;;;1.70;81.83
53647;BME280;39550;52.230;5.194;2023-02-10T06:37:46;103510.69;;;1.69;82.34
53647;BME280;39550;52.230;5.194;2023-02-10T06:40:12;103519.06;;;1.68;81.96
53647;BME280;39550;52.230;5.194;2023-02-10T06:42:38;103385.16;;;0.90;82.18
53647;BME280;39550;52.230;5.194;2023-02-10T06:45:04;103450.94;;;1.35;81.87
53647;BME280;39550;52.230;5.194;2023-02-10T06:47:30;103353.22;;;0.73;81.47
53647;BME280;39550;52.230;5.194;2023-02-10T06:49:55;103349.66;;;0.71;82.04
53647;BME280;39550;52.230;5.194;2023-02-10T06:52:21;103478.03;;;1.45;82.58
53647;BME280;39550;52.230;5.194;2023-02-10T06:54:49;103512.41;;;1.60;81.95
53647;BME280;39550;52.230;5.194;2023-02-10T06:57:14;103500.94;;;1.55;82.01
53647;BME280;39550;52.230;5.194;2023-02-10T06:59:40;103512.19;;;1.67;82.27
53647;BME280;39550;52.230;5.194;2023-02-10T07:02:05;103484.69;;;1.53;82.03
53647;BME280;39550;52.230;5.194;2023-02-10T07:04:31;103514.72;;;1.67;82.13
53647;BME280;39550;52.230;5.194;2023-02-10T07:06:57;103518.31;;;1.69;82.11
53647;BME280;39550;52.230;5.194;2023-02-10T07:09:23;103491.44;;;1.52;82.23
53647;BME280;39550;52.230;5.194;2023-02-10T07:11:49;103411.66;;;1.02;82.11
53647;BME280;39550;52.230;5.194;2023-02-10T07:14:15;103520.16;;;1.62;82.18
53647;BME280;39550;52.230;5.194;2023-02-10T07:16:40;103468.59;;;1.33;82.29
53647;BME280;39550;52.230;5.194;2023-02-10T07:19:05;103517.75;;;1.63;82.16
53647;BME280;39550;52.230;5.194;2023-02-10T07:21:31;103435.59;;;1.14;82.40
53647;BME280;39550;52.230;5.194;2023-02-10T07:23:57;103513.47;;;1.62;82.36
53647;BME280;39550;52.230;5.194;2023-02-10T07:26:22;103504.00;;;1.51;81.96
53647;BME280;39550;52.230;5.194;2023-02-10T07:28:47;103539.13;;;1.65;82.11
53647;BME280;39550;52.230;5.194;2023-02-10T07:31:13;103533.50;;;1.59;82.03
53647;BME280;39550;52.230;5.194;2023-02-10T07:33:39;103518.09;;;1.47;81.94
53647;BME280;39550;52.230;5.194;2023-02-10T07:36:05;103515.16;;;1.43;81.95
53647;BME280;39550;52.230;5.194;2023-02-10T07:38:31;103523.06;;;1.56;82.06
53647;BME280;39550;52.230;5.194;2023-02-10T07:40:57;103535.28;;;1.60;82.42
53647;BME280;39550;52.230;5.194;2023-02-10T07:43:23;103455.38;;;1.08;82.04
53647;BME280;39550;52.230;5.194;2023-02-10T07:45:48;103548.47;;;1.56;81.74
53647;BME280;39550;52.230;5.194;2023-02-10T07:48:16;103557.94;;;1.67;81.68
53647;BME280;39550;52.230;5.194;2023-02-10T07:50:41;103555.41;;;1.67;82.06
53647;BME280;39550;52.230;5.194;2023-02-10T07:53:07;103470.31;;;1.24;81.85
53647;BME280;39550;52.230;5.194;2023-02-10T07:55:32;103502.75;;;1.37;81.70
53647;BME280;39550;52.230;5.194;2023-02-10T07:57:58;103555.56;;;1.69;81.67
53647;BME280;39550;52.230;5.194;2023-02-10T08:00:23;103556.44;;;1.69;82.14
53647;BME280;39550;52.230;5.194;2023-02-10T08:02:48;103488.66;;;1.30;81.98
53647;BME280;39550;52.230;5.194;2023-02-10T08:05:14;103556.19;;;1.66;82.10
53647;BME280;39550;52.230;5.194;2023-02-10T08:07:39;103532.97;;;1.53;81.98
53647;BME280;39550;52.230;5.194;2023-02-10T08:10:05;103560.00;;;1.72;81.94
53647;BME280;39550;52.230;5.194;2023-02-10T08:12:30;103494.59;;;1.31;81.70
53647;BME280;39550;52.230;5.194;2023-02-10T08:14:57;103488.34;;;1.27;81.98
53647;BME280;39550;52.230;5.194;2023-02-10T08:17:23;103543.97;;;1.62;81.92
53647;BME280;39550;52.230;5.194;2023-02-10T08:19:48;103560.66;;;1.69;81.86
53647;BME280;39550;52.230;5.194;2023-02-10T08:22:14;103566.13;;;1.74;81.87
53647;BME280;39550;52.230;5.194;2023-02-10T08:24:39;103526.34;;;1.55;81.67
53647;BME280;39550;52.230;5.194;2023-02-10T08:27:05;103509.72;;;1.48;82.05
53647;BME280;39550;52.230;5.194;2023-02-10T08:29:31;103497.19;;;1.41;81.61
53647;BME280;39550;52.230;5.194;2023-02-10T08:31:56;103529.19;;;1.58;81.77
53647;BME280;39550;52.230;5.194;2023-02-10T08:34:22;103560.28;;;1.75;81.60
53647;BME280;39550;52.230;5.194;2023-02-10T08:36:47;103473.91;;;1.26;81.57
53647;BME280;39550;52.230;5.194;2023-02-10T08:39:14;103473.41;;;1.30;81.53
53647;BME280;39550;52.230;5.194;2023-02-10T08:41:39;103559.50;;;1.76;81.71
53647;BME280;39550;52.230;5.194;2023-02-10T08:44:05;103555.22;;;1.75;81.77
53647;BME280;39550;52.230;5.194;2023-02-10T08:46:31;103566.25;;;1.75;81.81
53647;BME280;39550;52.230;5.194;2023-02-10T08:48:57;103578.22;;;1.76;81.81
53647;BME280;39550;52.230;5.194;2023-02-10T08:51:25;103562.06;;;1.76;81.45
53647;BME280;39550;52.230;5.194;2023-02-10T08:53:50;103530.06;;;1.59;81.71
53647;BME280;39550;52.230;5.194;2023-02-10T08:56:17;103566.38;;;1.77;81.47
53647;BME280;39550;52.230;5.194;2023-02-10T08:58:43;103538.75;;;1.61;81.27
53647;BME280;39550;52.230;5.194;2023-02-10T09:01:20;103576.06;;;1.81;81.49
53647;BME280;39550;52.230;5.194;2023-02-10T09:03:46;103582.94;;;1.82;81.57
53647;BME280;39550;52.230;5.194;2023-02-10T09:09:22;103494.75;;;1.32;81.39
53647;BME280;39550;52.230;5.194;2023-02-10T09:11:50;103581.41;;;1.84;81.35
53647;BME280;39550;52.230;5.194;2023-02-10T09:14:15;103556.44;;;1.69;81.56
53647;BME280;39550;52.230;5.194;2023-02-10T09:16:41;103562.84;;;1.75;81.66
53647;BME280;39550;52.230;5.194;2023-02-10T09:19:06;103547.88;;;1.59;81.59
53647;BME280;39550;52.230;5.194;2023-02-10T09:21:32;103582.47;;;1.86;81.14
53647;BME280;39550;52.230;5.194;2023-02-10T09:23:57;103561.16;;;1.75;81.54
53647;BME280;39550;52.230;5.194;2023-02-10T09:26:22;103581.72;;;1.87;81.98
53647;BME280;39550;52.230;5.194;2023-02-10T09:28:48;103574.56;;;1.83;81.35
53647;BME280;39550;52.230;5.194;2023-02-10T09:31:13;103574.69;;;1.84;81.31
53647;BME280;39550;52.230;5.194;2023-02-10T09:33:41;103564.09;;;1.80;81.68
53647;BME280;39550;52.230;5.194;2023-02-10T09:36:13;103585.53;;;1.92;81.17
53647;BME280;39550;52.230;5.194;2023-02-10T09:38:39;103487.13;;;1.32;81.52
53647;BME280;39550;52.230;5.194;2023-02-10T09:43:57;103582.22;;;1.93;81.46
53647;BME280;39550;52.230;5.194;2023-02-10T09:51:43;103576.66;;;1.97;81.32
53647;BME280;39550;52.230;5.194;2023-02-10T09:54:11;103564.03;;;1.89;81.51
53647;BME280;39550;52.230;5.194;2023-02-10T09:56:37;103508.09;;;1.59;80.79
53647;BME280;39550;52.230;5.194;2023-02-10T09:59:05;103580.22;;;1.99;81.34
53647;BME280;39550;52.230;5.194;2023-02-10T10:01:47;103572.06;;;1.93;81.37
53647;BME280;39550;52.230;5.194;2023-02-10T10:04:18;103588.13;;;2.02;81.29
53647;BME280;39550;52.230;5.194;2023-02-10T10:06:48;103582.75;;;1.99;81.63
53647;BME280;39550;52.230;5.194;2023-02-10T10:09:37;103589.16;;;2.04;81.26
53647;BME280;39550;52.230;5.194;2023-02-10T10:12:09;103568.78;;;1.94;81.49
53647;BME280;39550;52.230;5.194;2023-02-10T10:14:38;103583.03;;;2.02;81.16
53647;BME280;39550;52.230;5.194;2023-02-10T10:28:32;103553.03;;;2.09;81.45
53647;BME280;39550;52.230;5.194;2023-02-10T10:34:18;103567.69;;;2.21;81.40
53647;BME280;39550;52.230;5.194;2023-02-10T10:36:48;103566.19;;;2.24;81.15
53647;BME280;39550;52.230;5.194;2023-02-10T10:39:35;103573.81;;;2.24;81.82
53647;BME280;39550;52.230;5.194;2023-02-10T10:42:25;103570.66;;;2.26;81.35
53647;BME280;39550;52.230;5.194;2023-02-10T10:44:57;103553.84;;;2.18;81.32
53647;BME280;39550;52.230;5.194;2023-02-10T10:48:01;103580.34;;;2.30;81.59
53647;BME280;39550;52.230;5.194;2023-02-10T10:50:31;103568.63;;;2.32;81.32
53647;BME280;39550;52.230;5.194;2023-02-10T10:52:57;103545.16;;;2.16;81.19
53647;BME280;39550;52.230;5.194;2023-02-10T10:55:41;103530.41;;;2.12;81.22
53647;BME280;39550;52.230;5.194;2023-02-10T11:00:54;103493.72;;;1.89;81.42
53647;BME280;39550;52.230;5.194;2023-02-10T11:03:20;103507.25;;;1.98;81.56
53647;BME280;39550;52.230;5.194;2023-02-10T11:08:36;103561.28;;;2.35;81.38
53647;BME280;39550;52.230;5.194;2023-02-10T11:11:04;103528.66;;;2.21;81.53
53647;BME280;39550;52.230;5.194;2023-02-10T11:13:31;103490.56;;;2.02;81.40
53647;BME280;39550;52.230;5.194;2023-02-10T11:16:02;103562.53;;;2.41;81.25
53647;BME280;39550;52.230;5.194;2023-02-10T11:18:29;103488.03;;;2.02;81.11
53647;BME280;39550;52.230;5.194;2023-02-10T11:21:01;103458.38;;;1.92;81.23
53647;BME280;39550;52.230;5.194;2023-02-10T11:23:28;103480.81;;;2.07;81.44
53647;BME280;39550;52.230;5.194;2023-02-10T11:26:01;103537.75;;;2.48;80.79
53647;BME280;39550;52.230;5.194;2023-02-10T11:28:29;103534.28;;;2.48;80.85
53647;BME280;39550;52.230;5.194;2023-02-10T11:31:20;103499.78;;;2.31;80.89
53647;BME280;39550;52.230;5.194;2023-02-10T11:34:19;103520.56;;;2.46;81.01
53647;BME280;39550;52.230;5.194;2023-02-10T11:36:42;103488.38;;;2.36;80.87
53647;BME280;39550;52.230;5.194;2023-02-10T11:39:19;103525.66;;;2.56;80.51
53647;BME280;39550;52.230;5.194;2023-02-10T11:41:45;103466.84;;;2.22;81.17
53647;BME280;39550;52.230;5.194;2023-02-10T11:44:23;103526.16;;;2.52;80.66
53647;BME280;39550;52.230;5.194;2023-02-10T11:47:19;103476.28;;;2.23;81.17
53647;BME280;39550;52.230;5.194;2023-02-10T11:49:47;103517.00;;;2.54;80.70
53647;BME280;39550;52.230;5.194;2023-02-10T11:52:15;103519.06;;;2.58;80.60
53647;BME280;39550;52.230;5.194;2023-02-10T11:54:42;103507.09;;;2.67;80.50
53647;BME280;39550;52.230;5.194;2023-02-10T11:57:16;103511.53;;;2.70;80.39
53647;BME280;39550;52.230;5.194;2023-02-10T12:05:57;103511.66;;;2.82;80.47
53647;BME280;39550;52.230;5.194;2023-02-10T12:13:54;103490.81;;;2.76;79.60
53647;BME280;39550;52.230;5.194;2023-02-10T12:19:21;103522.13;;;2.95;79.76
53647;BME280;39550;52.230;5.194;2023-02-10T12:22:03;103518.53;;;3.03;79.75
53647;BME280;39550;52.230;5.194;2023-02-10T12:30:28;103497.53;;;3.06;78.94
53647;BME280;39550;52.230;5.194;2023-02-10T12:35:49;103490.50;;;3.14;79.33
53647;BME280;39550;52.230;5.194;2023-02-10T12:38:35;103497.84;;;3.21;78.66
53647;BME280;39550;52.230;5.194;2023-02-10T12:41:15;103504.00;;;3.13;79.66
53647;BME280;39550;52.230;5.194;2023-02-10T12:43:51;103491.75;;;3.09;79.79
53647;BME280;39550;52.230;5.194;2023-02-10T12:46:26;103496.84;;;3.09;79.49
53647;BME280;39550;52.230;5.194;2023-02-10T12:49:17;103495.34;;;3.11;80.03
53647;BME280;39550;52.230;5.194;2023-02-10T12:57:42;103488.81;;;3.24;78.83
53647;BME280;39550;52.230;5.194;2023-02-10T13:03:31;103472.13;;;3.28;79.47
53647;BME280;39550;52.230;5.194;2023-02-10T13:06:59;103474.38;;;3.35;78.99
53647;BME280;39550;52.230;5.194;2023-02-10T13:09:28;103461.19;;;3.51;78.86
53647;BME280;39550;52.230;5.194;2023-02-10T13:14:28;103441.31;;;3.80;77.37
53647;BME280;39550;52.230;5.194;2023-02-10T13:16:56;103426.34;;;4.06;76.01
53647;BME280;39550;52.230;5.194;2023-02-10T13:19:36;103417.41;;;3.89;77.10
53647;BME280;39550;52.230;5.194;2023-02-10T13:25:14;103425.09;;;3.57;78.34
53647;BME280;39550;52.230;5.194;2023-02-10T13:30:44;103424.81;;;3.64;77.83
53647;BME280;39550;52.230;5.194;2023-02-10T13:36:24;103414.72;;;3.88;77.12
53647;BME280;39550;52.230;5.194;2023-02-10T13:39:23;103424.94;;;3.88;77.58
53647;BME280;39550;52.230;5.194;2023-02-10T13:45:04;103408.06;;;3.46;79.19
53647;BME280;39550;52.230;5.194;2023-02-10T13:47:47;103414.31;;;3.49;78.65
53647;BME280;39550;52.230;5.194;2023-02-10T13:58:26;103416.97;;;3.51;78.83
53647;BME280;39550;52.230;5.194;2023-02-10T14:00:53;103408.41;;;4.17;77.33
53647;BME280;39550;52.230;5.194;2023-02-10T14:03:22;103400.00;;;4.41;75.50
53647;BME280;39550;52.230;5.194;2023-02-10T14:06:00;103395.72;;;4.52;75.76
53647;BME280;39550;52.230;5.194;2023-02-10T14:08:28;103391.94;;;4.59;75.99
53647;BME280;39550;52.230;5.194;2023-02-10T14:11:04;103387.78;;;4.37;75.95
53647;BME280;39550;52.230;5.194;2023-02-10T14:13:33;103376.59;;;4.01;77.19
53647;BME280;39550;52.230;5.194;2023-02-10T14:16:25;103370.44;;;3.75;78.61
53647;BME280;39550;52.230;5.194;2023-02-10T14:19:01;103378.16;;;3.99;78.47
53647;BME280;39550;52.230;5.194;2023-02-10T14:21:41;103365.03;;;3.83;78.50
53647;BME280;39550;52.230;5.194;2023-02-10T14:24:17;103367.16;;;3.66;78.79
53647;BME280;39550;52.230;5.194;2023-02-10T14:26:45;103368.88;;;3.55;79.87
53647;BME280;39550;52.230;5.194;2023-02-10T14:29:16;103371.84;;;3.50;79.51
53647;BME280;39550;52.230;5.194;2023-02-10T14:31:49;103384.59;;;3.50;79.54
53647;BME280;39550;52.230;5.194;2023-02-10T14:34:33;103384.38;;;3.47;80.33
53647;BME280;39550;52.230;5.194;2023-02-10T14:37:14;103389.22;;;3.44;80.21
53647;BME280;39550;52.230;5.194;2023-02-10T14:39:50;103375.47;;;3.41;80.44
53647;BME280;39550;52.230;5.194;2023-02-10T14:42:16;103376.75;;;3.36;81.01
53647;BME280;39550;52.230;5.194;2023-02-10T14:44:45;103365.03;;;3.38;80.50
53647;BME280;39550;52.230;5.194;2023-02-10T14:47:21;103370.13;;;3.38;80.83
53647;BME280;39550;52.230;5.194;2023-02-10T14:49:54;103368.34;;;3.37;80.99
53647;BME280;39550;52.230;5.194;2023-02-10T14:52:32;103365.56;;;3.34;80.71
53647;BME280;39550;52.230;5.194;2023-02-10T14:54:58;103360.91;;;3.40;80.89
53647;BME280;39550;52.230;5.194;2023-02-10T14:57:27;103359.16;;;3.39;80.69
53647;BME280;39550;52.230;5.194;2023-02-10T14:59:58;103365.75;;;3.48;81.43
53647;BME280;39550;52.230;5.194;2023-02-10T15:02:26;103356.22;;;3.45;81.68
53647;BME280;39550;52.230;5.194;2023-02-10T15:04:56;103351.34;;;3.48;81.23
53647;BME280;39550;52.230;5.194;2023-02-10T15:07:31;103355.06;;;3.41;81.43
53647;BME280;39550;52.230;5.194;2023-02-10T15:10:15;103362.19;;;3.46;81.63
53647;BME280;39550;52.230;5.194;2023-02-10T15:12:47;103343.91;;;3.29;81.92
53647;BME280;39550;52.230;5.194;2023-02-10T15:15:35;103346.34;;;3.28;81.86
53647;BME280;39550;52.230;5.194;2023-02-10T15:18:10;103341.66;;;3.22;81.67
53647;BME280;39550;52.230;5.194;2023-02-10T15:20:51;103322.88;;;3.10;81.38
53647;BME280;39550;52.230;5.194;2023-02-10T15:23:23;103363.88;;;3.35;81.74
53647;BME280;39550;52.230;5.194;2023-02-10T15:26:16;103323.88;;;3.12;81.58
53647;BME280;39550;52.230;5.194;2023-02-10T15:29:08;103355.66;;;3.27;82.83
53647;BME280;39550;52.230;5.194;2023-02-10T15:34:51;103341.44;;;3.19;82.46
53647;BME280;39550;52.230;5.194;2023-02-10T15:44:38;103373.44;;;3.37;81.80
53647;BME280;39550;52.230;5.194;2023-02-10T15:47:53;103342.53;;;3.22;82.55
53647;BME280;39550;52.230;5.194;2023-02-10T15:50:24;103320.53;;;3.13;82.60
53647;BME280;39550;52.230;5.194;2023-02-10T15:55:50;103368.09;;;3.34;82.42
53647;BME280;39550;52.230;5.194;2023-02-10T15:58:58;103372.56;;;3.37;83.04
53647;BME280;39550;52.230;5.194;2023-02-10T16:01:49;103367.47;;;3.37;83.15
53647;BME280;39550;52.230;5.194;2023-02-10T16:04:31;103322.09;;;3.11;82.79
53647;BME280;39550;52.230;5.194;2023-02-10T16:07:13;103344.22;;;3.22;82.33
53647;BME280;39550;52.230;5.194;2023-02-10T16:09:55;103320.31;;;3.10;82.89
53647;BME280;39550;52.230;5.194;2023-02-10T16:12:22;103366.31;;;3.33;82.81
53647;BME280;39550;52.230;5.194;2023-02-10T16:15:17;103356.13;;;3.33;83.02
53647;BME280;39550;52.230;5.194;2023-02-10T16:18:27;103353.88;;;3.26;82.44
53647;BME280;39550;52.230;5.194;2023-02-10T16:24:18;103339.97;;;3.33;83.50
53647;BME280;39550;52.230;5.194;2023-02-10T16:26:52;103339.84;;;3.31;83.15
53647;BME280;39550;52.230;5.194;2023-02-10T16:29:43;103339.03;;;3.32;83.41
53647;BME280;39550;52.230;5.194;2023-02-10T16:32:48;103303.00;;;3.05;82.50
53647;BME280;39550;52.230;5.194;2023-02-10T16:35:56;103328.84;;;3.32;83.57
53647;BME280;39550;52.230;5.194;2023-02-10T16:38:34;103265.28;;;2.89;83.62
53647;BME280;39550;52.230;5.194;2023-02-10T16:41:17;103336.50;;;3.32;82.59
53647;BME280;39550;52.230;5.194;2023-02-10T16:44:06;103331.28;;;3.31;82.92
53647;BME280;39550;52.230;5.194;2023-02-10T16:46:36;103326.31;;;3.32;83.68
53647;BME280;39550;52.230;5.194;2023-02-10T16:49:04;103331.56;;;3.34;84.67
53647;BME280;39550;52.230;5.194;2023-02-10T16:51:30;103325.78;;;3.36;84.42
53647;BME280;39550;52.230;5.194;2023-02-10T16:53:57;103323.22;;;3.36;83.27
53647;BME280;39550;52.230;5.194;2023-02-10T16:56:23;103317.38;;;3.37;84.07
53647;BME280;39550;52.230;5.194;2023-02-10T16:58:49;103315.56;;;3.36;83.43
53647;BME280;39550;52.230;5.194;2023-02-10T17:01:17;103272.94;;;3.12;83.48
53647;BME280;39550;52.230;5.194;2023-02-10T17:03:52;103318.28;;;3.38;83.53
53647;BME280;39550;52.230;5.194;2023-02-10T17:09:57;103248.03;;;2.97;84.42
53647;BME280;39550;52.230;5.194;2023-02-10T17:12:47;103304.47;;;3.24;84.70
53647;BME280;39550;52.230;5.194;2023-02-10T17:15:16;103340.53;;;3.40;84.33
53647;BME280;39550;52.230;5.194;2023-02-10T17:18:05;103339.53;;;3.38;84.42
53647;BME280;39550;52.230;5.194;2023-02-10T17:20:38;103318.19;;;3.26;84.34
53647;BME280;39550;52.230;5.194;2023-02-10T17:30:47;103344.63;;;3.38;83.77
53647;BME280;39550;52.230;5.194;2023-02-10T17:33:38;103338.50;;;3.36;83.96
53647;BME280;39550;52.230;5.194;2023-02-10T17:36:29;103350.72;;;3.40;84.29
53647;BME280;39550;52.230;5.194;2023-02-10T17:38:54;103353.03;;;3.37;84.31
53647;BME280;39550;52.230;5.194;2023-02-10T17:41:26;103335.97;;;3.36;84.31
53647;BME280;39550;52.230;5.194;2023-02-10T17:43:58;103344.63;;;3.38;84.30
53647;BME280;39550;52.230;5.194;2023-02-10T17:46:25;103339.53;;;3.38;84.09
53647;BME280;39550;52.230;5.194;2023-02-10T17:48:51;103327.56;;;3.37;84.38
53647;BME280;39550;52.230;5.194;2023-02-10T17:51:19;103319.69;;;3.34;83.81
53647;BME280;39550;52.230;5.194;2023-02-10T17:53:46;103326.69;;;3.37;84.25
53647;BME280;39550;52.230;5.194;2023-02-10T17:56:17;103326.69;;;3.37;84.27
53647;BME280;39550;52.230;5.194;2023-02-10T17:58:44;103318.28;;;3.38;84.22
53647;BME280;39550;52.230;5.194;2023-02-10T18:01:24;103320.66;;;3.36;83.78
53647;BME280;39550;52.230;5.194;2023-02-10T18:04:10;103331.91;;;3.38;83.85
53647;BME280;39550;52.230;5.194;2023-02-10T18:06:56;103332.66;;;3.37;84.00
53647;BME280;39550;52.230;5.194;2023-02-10T18:09:23;103317.38;;;3.37;83.94
53647;BME280;39550;52.230;5.194;2023-02-10T18:11:48;103300.16;;;3.35;84.11
53647;BME280;39550;52.230;5.194;2023-02-10T18:14:14;103309.41;;;3.45;84.57
53647;BME280;39550;52.230;5.194;2023-02-10T18:16:43;103309.19;;;3.41;84.66
53647;BME280;39550;52.230;5.194;2023-02-10T18:19:08;103297.19;;;3.40;84.51
53647;BME280;39550;52.230;5.194;2023-02-10T18:21:34;103293.00;;;3.41;85.04
53647;BME280;39550;52.230;5.194;2023-02-10T18:24:02;103274.03;;;3.37;84.10
53647;BME280;39550;52.230;5.194;2023-02-10T18:26:48;103267.41;;;3.39;84.45
53647;BME280;39550;52.230;5.194;2023-02-10T18:29:13;103268.94;;;3.37;83.83
53647;BME280;39550;52.230;5.194;2023-02-10T18:31:41;103279.50;;;3.42;84.29